Time;durP1;ratioP1;P1;durP2;ratioP2;P2;SDS_P1;SDS_P2;PMS_P1;PMS_P2;Temp;Humidity;BMP_temperature;BMP_pressure;BME280_temperature;BME280_humidity;BME280_pressure;Samples;Min_cycle;Max_cycle;Signal;HPM_P1;HPM_P2
2022/05/30 00:01:19;;;;;;;2.40;1.25;;;6.30;99.90;;;;;;5019539;28;20045;-37
2022/05/30 00:03:45;;;;;;;1.38;1.20;;;6.40;99.90;;;;;;5025015;28;20108;-36
2022/05/30 00:06:15;;;;;;;1.33;1.23;;;6.40;99.90;;;;;;5021884;28;20029;-37
2022/05/30 00:08:41;;;;;;;1.30;1.00;;;6.30;99.90;;;;;;5024592;28;20038;-36
2022/05/30 00:11:09;;;;;;;1.02;1.02;;;6.40;99.90;;;;;;5020382;28;20086;-39
2022/05/30 00:13:35;;;;;;;2.05;1.10;;;6.40;99.90;;;;;;5030842;28;20031;-36
2022/05/30 00:16:11;;;;;;;0.98;0.98;;;6.50;99.90;;;;;;5022330;28;20037;-37
2022/05/30 00:18:37;;;;;;;0.90;0.90;;;6.50;99.90;;;;;;5026065;28;21545;-37
2022/05/30 00:21:04;;;;;;;12.98;1.25;;;6.50;99.90;;;;;;5029233;28;20039;-37
2022/05/30 00:23:29;;;;;;;3.70;1.02;;;6.10;99.90;;;;;;5027445;28;20045;-36
2022/05/30 00:25:55;;;;;;;0.95;0.95;;;6.10;99.90;;;;;;5022180;28;20043;-36
2022/05/30 00:28:22;;;;;;;1.13;1.10;;;5.90;99.90;;;;;;5023322;28;20029;-37
2022/05/30 00:30:49;;;;;;;13.05;3.67;;;6.00;99.90;;;;;;5016679;28;20041;-35
2022/05/30 00:33:15;;;;;;;11.55;2.95;;;6.10;99.90;;;;;;5022567;28;20573;-36
2022/05/30 00:35:42;;;;;;;37.25;4.90;;;6.20;99.90;;;;;;5022082;28;20033;-36
2022/05/30 00:38:08;;;;;;;19.85;2.38;;;6.10;99.90;;;;;;5030019;28;20509;-36
2022/05/30 00:40:35;;;;;;;4.18;1.70;;;6.10;99.90;;;;;;5023098;28;20040;-36
2022/05/30 00:43:37;;;;;;;1.70;1.60;;;6.20;99.90;;;;;;5030693;28;20040;-39
2022/05/30 00:46:12;;;;;;;2.53;1.50;;;6.10;99.90;;;;;;4976763;28;20049;-37
2022/05/30 00:49:02;;;;;;;2.80;2.03;;;6.20;99.90;;;;;;5026208;28;20041;-36
2022/05/30 00:51:36;;;;;;;1.65;1.55;;;6.10;99.90;;;;;;5029714;28;20029;-38
2022/05/30 00:54:04;;;;;;;1.60;1.50;;;6.10;99.90;;;;;;5026772;28;20367;-36
2022/05/30 00:56:34;;;;;;;1.23;1.20;;;6.10;99.90;;;;;;5025750;28;20029;-37
2022/05/30 00:59:01;;;;;;;1.98;1.70;;;6.10;99.90;;;;;;5036781;28;20038;-37
2022/05/30 01:01:28;;;;;;;1.50;1.40;;;6.20;99.90;;;;;;5012408;28;20541;-39
2022/05/30 01:06:44;;;;;;;8.15;2.28;;;6.10;99.90;;;;;;5019559;28;20076;-38
2022/05/30 01:09:33;;;;;;;5.78;2.30;;;5.90;99.90;;;;;;5018434;28;20136;-37
2022/05/30 01:12:05;;;;;;;2.00;1.90;;;6.00;99.90;;;;;;5023562;28;20034;-39
2022/05/30 01:14:40;;;;;;;1.70;1.60;;;6.00;99.90;;;;;;5020026;28;20142;-39
2022/05/30 01:17:09;;;;;;;1.70;1.60;;;6.00;99.90;;;;;;5017638;28;20426;-39
2022/05/30 01:20:05;;;;;;;1.90;1.80;;;6.10;99.90;;;;;;5026016;28;20045;-37
2022/05/30 01:22:45;;;;;;;1.98;1.88;;;6.00;99.90;;;;;;5021983;28;20107;-36
2022/05/30 01:25:34;;;;;;;2.13;1.92;;;5.90;99.90;;;;;;5017485;28;20503;-39
2022/05/30 01:28:08;;;;;;;1.60;1.52;;;6.00;99.90;;;;;;5019186;28;20041;-36
2022/05/30 01:30:37;;;;;;;1.85;1.73;;;6.00;99.90;;;;;;5016666;28;20837;-38
2022/05/30 01:33:03;;;;;;;2.17;1.98;;;5.90;99.90;;;;;;5013312;28;20044;-37
2022/05/30 01:35:28;;;;;;;14.80;3.30;;;6.00;99.90;;;;;;5021088;28;20029;-39
2022/05/30 01:37:58;;;;;;;2.05;1.95;;;6.10;99.90;;;;;;5016627;28;20102;-35
2022/05/30 01:40:26;;;;;;;7.57;2.45;;;6.00;99.90;;;;;;5020277;28;20033;-38
2022/05/30 01:42:52;;;;;;;2.00;1.83;;;5.60;99.90;;;;;;5018638;28;20439;-35
2022/05/30 01:45:18;;;;;;;3.05;2.25;;;5.70;99.90;;;;;;5017181;28;20034;-38
2022/05/30 01:47:44;;;;;;;18.70;2.50;;;5.80;99.90;;;;;;5017929;28;20032;-37
2022/05/30 01:50:10;;;;;;;14.02;2.33;;;5.80;99.90;;;;;;5016277;28;20038;-39
2022/05/30 01:52:36;;;;;;;22.48;2.65;;;5.70;99.90;;;;;;5017290;28;20083;-38
2022/05/30 01:55:02;;;;;;;4.10;2.60;;;5.50;99.90;;;;;;5017933;28;20022;-36
2022/05/30 01:57:28;;;;;;;6.78;2.97;;;5.30;99.90;;;;;;5017320;28;20116;-39
2022/05/30 01:59:53;;;;;;;2.95;2.30;;;5.30;99.90;;;;;;5017533;28;20033;-39
2022/05/30 02:02:19;;;;;;;2.58;1.90;;;5.40;99.90;;;;;;5017011;28;20049;-38
2022/05/30 02:04:45;;;;;;;2.67;2.20;;;5.60;99.90;;;;;;5020299;28;20040;-39
2022/05/30 02:07:11;;;;;;;2.28;1.98;;;5.70;99.90;;;;;;5023154;28;20444;-40
2022/05/30 02:09:36;;;;;;;2.42;2.10;;;5.80;99.90;;;;;;5020470;28;20042;-38
2022/05/30 02:12:02;;;;;;;5.13;2.30;;;5.90;99.90;;;;;;5017813;28;20038;-37
2022/05/30 02:14:28;;;;;;;6.78;2.55;;;6.00;99.90;;;;;;5025405;28;20026;-39
2022/05/30 02:17:06;;;;;;;2.13;1.92;;;6.00;99.90;;;;;;5011933;28;20133;-39
2022/05/30 02:19:36;;;;;;;3.72;2.38;;;6.00;99.90;;;;;;5022342;28;20068;-38
2022/05/30 02:22:01;;;;;;;2.50;2.00;;;6.00;99.90;;;;;;5019863;28;20116;-40
2022/05/30 02:24:28;;;;;;;2.55;2.10;;;6.00;99.90;;;;;;5021169;28;20411;-40
2022/05/30 02:26:54;;;;;;;2.72;2.28;;;6.00;99.90;;;;;;5019175;28;20474;-36
2022/05/30 02:29:20;;;;;;;2.88;2.20;;;6.10;99.90;;;;;;5023952;28;20545;-38
2022/05/30 02:31:45;;;;;;;4.47;1.90;;;6.10;99.90;;;;;;5018777;28;20403;-39
2022/05/30 02:36:56;;;;;;;2.53;1.80;;;6.30;99.90;;;;;;5014845;28;20101;-39
2022/05/30 02:39:23;;;;;;;2.28;2.03;;;6.30;99.90;;;;;;5015031;28;20049;-39
2022/05/30 02:41:50;;;;;;;2.40;2.20;;;6.40;99.90;;;;;;5022914;28;20873;-39
2022/05/30 02:44:20;;;;;;;25.40;3.75;;;6.40;99.90;;;;;;5028354;28;20033;-37
2022/05/30 02:46:59;;;;;;;2.22;1.95;;;6.30;99.90;;;;;;5023279;28;20394;-40
2022/05/30 02:49:26;;;;;;;13.52;3.10;;;6.30;99.90;;;;;;5027414;28;20033;-36
2022/05/30 02:51:52;;;;;;;3.78;2.28;;;6.20;99.90;;;;;;5026650;28;20101;-36
2022/05/30 02:54:18;;;;;;;4.38;2.70;;;6.20;99.90;;;;;;5022620;28;20041;-39
2022/05/30 02:56:49;;;;;;;18.05;4.65;;;6.30;99.90;;;;;;5022247;28;20521;-39
2022/05/30 02:59:15;;;;;;;4.78;2.40;;;6.20;99.90;;;;;;5022083;28;20434;-37
2022/05/30 03:01:41;;;;;;;27.20;7.63;;;6.10;99.90;;;;;;5018989;28;20061;-39
2022/05/30 03:04:07;;;;;;;5.53;4.13;;;6.10;99.90;;;;;;5027061;28;20029;-39
2022/05/30 03:06:32;;;;;;;54.22;5.18;;;6.00;99.90;;;;;;5027606;28;20088;-38
2022/05/30 03:08:58;;;;;;;11.70;2.97;;;6.10;99.90;;;;;;5019675;28;20112;-39
2022/05/30 03:11:24;;;;;;;16.50;4.63;;;6.00;99.90;;;;;;5020665;28;20036;-40
2022/05/30 03:13:50;;;;;;;6.82;5.00;;;5.90;99.90;;;;;;5017181;28;20053;-40
2022/05/30 03:16:16;;;;;;;3.35;2.60;;;6.00;99.90;;;;;;5023331;28;20060;-36
2022/05/30 03:18:42;;;;;;;4.78;3.30;;;6.00;99.90;;;;;;5023990;28;20489;-40
2022/05/30 03:21:08;;;;;;;12.13;3.50;;;6.10;99.90;;;;;;5019641;28;20033;-39
2022/05/30 03:23:34;;;;;;;32.95;4.43;;;6.10;99.90;;;;;;5025616;28;20119;-40
2022/05/30 03:26:00;;;;;;;2.83;2.53;;;6.00;99.90;;;;;;5019375;28;20049;-39
2022/05/30 03:28:25;;;;;;;10.20;2.92;;;6.00;99.90;;;;;;5022856;28;20033;-38
2022/05/30 03:30:51;;;;;;;3.95;3.05;;;6.10;99.90;;;;;;5024913;28;20030;-37
2022/05/30 03:33:17;;;;;;;4.22;3.83;;;6.10;99.90;;;;;;5022524;28;20033;-36
2022/05/30 03:35:42;;;;;;;9.50;3.33;;;6.10;99.90;;;;;;5027137;28;20433;-38
2022/05/30 03:38:08;;;;;;;3.45;2.67;;;5.90;99.90;;;;;;5021461;28;20032;-37
2022/05/30 03:40:38;;;;;;;4.53;3.63;;;6.00;99.90;;;;;;5018976;28;20040;-40
2022/05/30 03:43:07;;;;;;;3.50;2.97;;;6.00;99.90;;;;;;5027659;28;20059;-39
2022/05/30 03:45:34;;;;;;;21.92;4.13;;;6.10;99.90;;;;;;5028518;28;20041;-40
2022/05/30 03:47:59;;;;;;;2.75;2.55;;;6.10;99.90;;;;;;5028766;28;20033;-38
2022/05/30 03:50:25;;;;;;;4.20;3.17;;;6.10;99.90;;;;;;5020883;28;20032;-37
2022/05/30 03:52:51;;;;;;;3.83;3.17;;;6.10;99.90;;;;;;5024762;28;20044;-38
2022/05/30 03:55:20;;;;;;;11.00;3.65;;;6.10;99.90;;;;;;5019815;28;20434;-38
2022/05/30 03:57:46;;;;;;;;;;;6.10;99.90;;;;;;5019183;28;20033;-39
2022/05/30 04:00:19;;;;;;;9.00;3.35;;;6.20;99.90;;;;;;5022963;28;19909;-38
2022/05/30 04:02:47;;;;;;;7.60;3.60;;;6.20;99.90;;;;;;5018238;28;20114;-38
2022/05/30 04:05:14;;;;;;;4.72;3.75;;;6.20;99.90;;;;;;5021529;28;20052;-39
2022/05/30 04:07:40;;;;;;;3.38;3.08;;;6.30;99.90;;;;;;5011741;28;20688;-35
2022/05/30 04:10:06;;;;;;;3.88;3.28;;;6.40;99.90;;;;;;5024611;28;20036;-37
2022/05/30 04:12:32;;;;;;;10.05;3.50;;;6.50;99.90;;;;;;5023623;28;20038;-36
2022/05/30 04:15:00;;;;;;;3.78;3.42;;;6.50;99.90;;;;;;5019119;28;20024;-37
2022/05/30 04:17:26;;;;;;;4.13;3.47;;;6.50;99.90;;;;;;5025068;28;20500;-35
2022/05/30 04:19:52;;;;;;;11.43;4.20;;;6.60;99.90;;;;;;5025314;28;20045;-38
2022/05/30 04:22:19;;;;;;;4.70;3.85;;;6.60;99.90;;;;;;5023165;28;20056;-35
2022/05/30 04:24:45;;;;;;;3.53;3.15;;;6.60;99.90;;;;;;5019291;28;20140;-37
2022/05/30 04:27:11;;;;;;;34.55;5.40;;;6.50;99.90;;;;;;5015894;28;21064;-36
2022/05/30 04:29:37;;;;;;;6.70;3.35;;;6.50;99.90;;;;;;5021740;28;20087;-36
2022/05/30 04:32:04;;;;;;;5.03;3.45;;;6.40;99.90;;;;;;5020342;28;20037;-36
2022/05/30 04:34:30;;;;;;;126.22;9.32;;;6.30;99.90;;;;;;5023234;28;20063;-38
2022/05/30 04:36:56;;;;;;;111.05;10.77;;;6.40;99.90;;;;;;5024556;28;21199;-38
2022/05/30 04:39:22;;;;;;;43.72;5.82;;;6.20;99.90;;;;;;5015951;28;20029;-37
2022/05/30 04:41:48;;;;;;;81.82;9.88;;;6.20;99.90;;;;;;5024387;28;20505;-39
2022/05/30 04:44:13;;;;;;;3.85;3.45;;;6.10;99.90;;;;;;5016101;28;20033;-38
2022/05/30 04:46:39;;;;;;;19.77;3.92;;;5.90;99.90;;;;;;5025331;28;21290;-39
2022/05/30 04:49:05;;;;;;;25.75;5.43;;;6.20;99.90;;;;;;5018900;28;20052;-38
2022/05/30 04:51:31;;;;;;;3.42;3.08;;;6.20;99.90;;;;;;5024975;28;20751;-38
2022/05/30 04:53:57;;;;;;;7.72;3.65;;;6.30;99.90;;;;;;5024403;28;20075;-39
2022/05/30 04:56:23;;;;;;;37.28;5.63;;;6.40;99.90;;;;;;5021629;28;20033;-39
2022/05/30 04:58:50;;;;;;;31.77;4.32;;;6.50;99.90;;;;;;5018533;28;20034;-35
2022/05/30 05:01:16;;;;;;;70.18;7.53;;;6.50;99.90;;;;;;5017299;28;20049;-35
2022/05/30 05:03:43;;;;;;;104.57;10.18;;;6.40;99.90;;;;;;5016499;28;20441;-37
2022/05/30 05:06:16;;;;;;;91.70;10.00;;;6.40;99.90;;;;;;5021170;28;20029;-37
2022/05/30 05:08:51;;;;;;;101.68;10.80;;;6.40;99.90;;;;;;5025210;28;20025;-38
2022/05/30 05:11:21;;;;;;;9.60;3.90;;;6.40;99.90;;;;;;5018966;28;20029;-36
2022/05/30 05:13:47;;;;;;;56.72;5.95;;;6.50;99.90;;;;;;5022596;28;20026;-37
2022/05/30 05:16:13;;;;;;;6.30;4.78;;;6.40;99.90;;;;;;5020949;28;20438;-38
2022/05/30 05:18:39;;;;;;;14.57;4.20;;;6.40;99.90;;;;;;5016267;28;20379;-39
2022/05/30 05:21:05;;;;;;;5.03;3.95;;;6.50;99.90;;;;;;5016210;28;20032;-38
2022/05/30 05:23:32;;;;;;;20.95;4.55;;;6.60;99.90;;;;;;5022475;28;20644;-39
2022/05/30 05:26:01;;;;;;;4.43;3.45;;;6.70;99.90;;;;;;5019677;28;20695;-38
2022/05/30 05:28:27;;;;;;;4.68;4.18;;;6.80;99.90;;;;;;5023414;28;20219;-36
2022/05/30 05:30:53;;;;;;;8.20;3.63;;;6.80;99.90;;;;;;5016077;28;20041;-36
2022/05/30 05:33:19;;;;;;;5.93;4.20;;;7.00;99.90;;;;;;5010978;28;20052;-37
2022/05/30 05:35:46;;;;;;;8.43;4.28;;;7.10;99.90;;;;;;5009526;28;20152;-38
2022/05/30 05:38:12;;;;;;;8.80;4.65;;;7.10;99.90;;;;;;5013050;28;20041;-37
2022/05/30 05:40:39;;;;;;;5.75;4.70;;;7.10;99.90;;;;;;5016481;28;20033;-35
2022/05/30 05:43:05;;;;;;;29.90;6.00;;;7.20;99.90;;;;;;5013782;28;20430;-37
2022/05/30 05:45:34;;;;;;;18.75;6.57;;;7.30;99.90;;;;;;5019862;28;20034;-38
2022/05/30 05:47:59;;;;;;;7.63;5.32;;;7.20;99.90;;;;;;5021740;28;20033;-36
2022/05/30 05:50:28;;;;;;;15.73;6.95;;;7.30;99.90;;;;;;5024395;28;20124;-38
2022/05/30 05:52:54;;;;;;;17.23;7.32;;;7.40;99.90;;;;;;5016975;28;20026;-37
2022/05/30 05:55:21;;;;;;;14.25;6.22;;;7.50;99.90;;;;;;5016599;28;20193;-37
2022/05/30 05:57:47;;;;;;;19.13;7.28;;;7.60;99.90;;;;;;5019561;28;20037;-38
2022/05/30 06:00:14;;;;;;;32.10;7.22;;;7.60;99.90;;;;;;5016984;28;20033;-36
2022/05/30 06:02:40;;;;;;;11.10;6.10;;;7.60;99.90;;;;;;5018579;28;20493;-35
2022/05/30 06:05:08;;;;;;;20.80;7.30;;;7.50;99.90;;;;;;5016679;28;20033;-39
2022/05/30 06:07:35;;;;;;;37.55;7.35;;;7.60;99.90;;;;;;5022833;28;20033;-39
2022/05/30 06:10:02;;;;;;;32.67;7.68;;;7.70;99.90;;;;;;5022441;28;20124;-39
2022/05/30 06:12:27;;;;;;;10.70;6.75;;;7.80;99.90;;;;;;5023458;28;20540;-37
2022/05/30 06:14:53;;;;;;;11.70;7.50;;;8.00;99.90;;;;;;5022867;28;20029;-38
2022/05/30 06:17:19;;;;;;;9.77;6.72;;;8.20;99.90;;;;;;5030300;28;20404;-39
2022/05/30 06:19:46;;;;;;;11.13;7.68;;;8.20;99.90;;;;;;5023139;28;20033;-38
2022/05/30 06:22:12;;;;;;;11.83;8.00;;;8.20;99.90;;;;;;5022414;28;20036;-39
2022/05/30 06:24:38;;;;;;;11.25;7.45;;;8.20;99.90;;;;;;5023397;28;20049;-38
2022/05/30 06:27:06;;;;;;;11.15;8.63;;;8.20;99.90;;;;;;5022235;28;20040;-36
2022/05/30 06:29:32;;;;;;;9.68;7.40;;;8.30;99.90;;;;;;5034304;28;20137;-39
2022/05/30 06:31:58;;;;;;;12.07;7.88;;;8.60;99.90;;;;;;5013488;28;20136;-38
2022/05/30 06:34:25;;;;;;;13.05;8.30;;;8.80;99.90;;;;;;5023642;28;20030;-37
2022/05/30 06:36:51;;;;;;;12.57;7.65;;;9.00;99.90;;;;;;5031594;28;20401;-39
2022/05/30 06:39:19;;;;;;;12.02;8.45;;;9.30;99.90;;;;;;5026500;28;20041;-36
2022/05/30 06:41:45;;;;;;;10.15;7.70;;;9.70;99.90;;;;;;5024842;28;20363;-38
2022/05/30 06:44:11;;;;;;;10.73;7.38;;;10.00;99.90;;;;;;5025643;28;20029;-37
2022/05/30 06:46:37;;;;;;;12.93;8.23;;;10.10;99.90;;;;;;5026619;28;20932;-37
2022/05/30 06:49:05;;;;;;;11.10;7.63;;;10.30;99.90;;;;;;5029770;28;20026;-38
2022/05/30 06:51:32;;;;;;;11.85;7.75;;;10.40;99.90;;;;;;5027776;28;20025;-39
2022/05/30 06:53:57;;;;;;;13.27;8.20;;;10.70;99.90;;;;;;5026967;28;20028;-35
2022/05/30 06:56:32;;;;;;;14.68;8.70;;;10.70;99.90;;;;;;5032768;28;20044;-37
2022/05/30 06:58:58;;;;;;;11.18;6.90;;;10.80;99.90;;;;;;5027220;28;20033;-39
2022/05/30 07:01:27;;;;;;;9.85;6.47;;;10.80;99.90;;;;;;5024905;28;20041;-39
2022/05/30 07:03:54;;;;;;;9.57;6.88;;;10.80;99.90;;;;;;5031486;28;20118;-37
2022/05/30 07:06:26;;;;;;;9.05;5.93;;;10.90;99.90;;;;;;5021619;28;20086;-37
2022/05/30 07:08:52;;;;;;;10.13;6.75;;;11.00;99.90;;;;;;5028700;28;20037;-38
2022/05/30 07:11:20;;;;;;;11.05;6.35;;;11.20;99.90;;;;;;5025103;28;20096;-38
2022/05/30 07:13:46;;;;;;;8.00;6.40;;;11.40;99.90;;;;;;5026053;28;20033;-36
2022/05/30 07:16:13;;;;;;;12.55;8.05;;;11.50;99.90;;;;;;5025954;28;20037;-39
2022/05/30 07:18:39;;;;;;;10.27;7.00;;;11.70;99.90;;;;;;5023927;28;20037;-39
2022/05/30 07:21:07;;;;;;;9.75;7.25;;;11.70;99.90;;;;;;5018791;28;20029;-38
2022/05/30 07:23:35;;;;;;;6.22;4.88;;;11.70;99.90;;;;;;5023928;28;20069;-39
2022/05/30 07:26:04;;;;;;;7.30;4.75;;;11.90;99.90;;;;;;5022426;28;20120;-38
2022/05/30 07:28:30;;;;;;;5.10;4.03;;;11.90;99.90;;;;;;5025458;28;20028;-36
2022/05/30 07:31:06;;;;;;;4.55;4.10;;;11.80;99.90;;;;;;5020133;28;20558;-38
2022/05/30 07:33:33;;;;;;;4.90;4.10;;;11.60;99.90;;;;;;5036149;28;20059;-38
2022/05/30 07:35:59;;;;;;;6.75;4.57;;;11.80;99.90;;;;;;5023262;28;20491;-39
2022/05/30 07:38:26;;;;;;;5.63;3.92;;;11.90;99.90;;;;;;5023783;28;20049;-39
2022/05/30 07:40:52;;;;;;;6.32;4.03;;;12.00;99.90;;;;;;5025532;28;20483;-36
2022/05/30 07:43:18;;;;;;;5.57;4.40;;;12.00;99.90;;;;;;5025269;28;20037;-39
2022/05/30 07:45:43;;;;;;;4.90;4.03;;;12.30;99.90;;;;;;5023272;28;20045;-38
2022/05/30 07:48:09;;;;;;;5.13;4.18;;;12.60;99.90;;;;;;5023170;28;20112;-38
2022/05/30 07:50:36;;;;;;;2.78;2.58;;;12.60;99.90;;;;;;5021413;28;20062;-36
2022/05/30 07:53:02;;;;;;;4.10;3.53;;;12.60;99.90;;;;;;5025054;28;20037;-39
2022/05/30 07:55:29;;;;;;;3.42;3.13;;;12.50;99.90;;;;;;5029546;28;20037;-39
2022/05/30 07:57:55;;;;;;;4.17;2.90;;;12.20;99.90;;;;;;5024057;28;20037;-37
2022/05/30 08:00:29;;;;;;;3.67;2.90;;;12.20;99.90;;;;;;5022322;28;20331;-38
2022/05/30 08:02:54;;;;;;;2.95;2.70;;;12.50;99.90;;;;;;5015819;28;20095;-36
2022/05/30 08:05:20;;;;;;;3.50;2.88;;;12.60;99.90;;;;;;5014927;28;20410;-36
2022/05/30 08:07:46;;;;;;;3.92;2.97;;;12.90;99.90;;;;;;5021361;28;20109;-36
2022/05/30 08:10:14;;;;;;;3.70;3.35;;;13.30;99.90;;;;;;5022455;28;20482;-38
2022/05/30 08:12:39;;;;;;;3.97;3.58;;;13.10;99.90;;;;;;5014997;28;20026;-39
2022/05/30 08:15:06;;;;;;;4.18;3.78;;;13.00;99.90;;;;;;5019057;28;20399;-38
2022/05/30 08:17:32;;;;;;;3.72;3.40;;;12.80;99.90;;;;;;5016796;28;20312;-35
2022/05/30 08:19:59;;;;;;;2.90;2.65;;;12.60;99.90;;;;;;5010534;28;20037;-35
2022/05/30 08:22:25;;;;;;;2.70;2.50;;;12.60;99.90;;;;;;5021186;28;20029;-38
2022/05/30 08:24:52;;;;;;;2.90;2.40;;;12.90;99.90;;;;;;5022971;28;20859;-39
2022/05/30 08:27:19;;;;;;;2.50;2.30;;;13.20;99.20;;;;;;5017764;28;20471;-38
2022/05/30 08:29:45;;;;;;;2.70;2.50;;;13.40;99.90;;;;;;5018057;28;20094;-36
2022/05/30 08:32:12;;;;;;;2.90;2.70;;;13.40;99.90;;;;;;5012031;28;20033;-36
2022/05/30 08:34:42;;;;;;;3.72;2.58;;;13.50;99.90;;;;;;5023975;28;20482;-38
2022/05/30 08:37:09;;;;;;;2.42;2.25;;;13.70;99.90;;;;;;5019472;28;20033;-38
2022/05/30 08:42:31;;;;;;;3.03;2.40;;;13.80;99.90;;;;;;5014342;28;20115;-39
2022/05/30 08:44:57;;;;;;;2.57;2.10;;;13.80;99.50;;;;;;5016158;28;20300;-36
2022/05/30 08:47:44;;;;;;;2.00;1.90;;;13.90;99.90;;;;;;5008864;28;20334;-35
2022/05/30 08:50:36;;;;;;;2.22;2.03;;;14.00;96.80;;;;;;5019284;28;20387;-36
2022/05/30 08:53:26;;;;;;;2.70;2.13;;;13.90;94.80;;;;;;5023416;28;20034;-39
2022/05/30 08:56:26;;;;;;;5.13;2.00;;;14.00;99.50;;;;;;5017039;28;20505;-38
2022/05/30 08:58:58;;;;;;;2.20;1.80;;;14.20;94.80;;;;;;5019528;28;20029;-38
2022/05/30 09:01:50;;;;;;;4.05;2.00;;;14.20;94.50;;;;;;5025073;28;20148;-38
2022/05/30 09:04:31;;;;;;;2.10;1.90;;;14.20;98.30;;;;;;5043854;28;20040;-39
2022/05/30 09:07:20;;;;;;;2.00;1.90;;;14.50;98.70;;;;;;5020586;28;20034;-40
2022/05/30 09:09:53;;;;;;;2.30;2.08;;;14.20;93.20;;;;;;5015226;28;20225;-39
2022/05/30 09:12:34;;;;;;;2.03;1.92;;;14.30;96.80;;;;;;5023057;28;20104;-36
2022/05/30 09:15:16;;;;;;;2.60;1.73;;;14.10;94.60;;;;;;5021898;28;20040;-39
2022/05/30 09:18:02;;;;;;;1.85;1.70;;;13.80;93.50;;;;;;5027574;28;20026;-40
2022/05/30 09:20:31;;;;;;;2.08;1.70;;;13.70;93.80;;;;;;5026429;28;20540;-38
2022/05/30 09:23:00;;;;;;;2.33;1.40;;;13.80;84.90;;;;;;5024816;28;20142;-39
2022/05/30 09:25:57;;;;;;;1.90;1.73;;;14.20;90.50;;;;;;5032982;28;20433;-37
2022/05/30 09:28:36;;;;;;;1.93;1.83;;;14.60;92.70;;;;;;5012704;28;20031;-38
2022/05/30 09:31:21;;;;;;;2.05;1.38;;;14.80;92.40;;;;;;5015451;28;20037;-37
2022/05/30 09:33:55;;;;;;;2.10;1.30;;;15.00;69.50;;;;;;5014690;28;20056;-40
2022/05/30 09:36:27;;;;;;;2.95;1.42;;;14.80;66.60;;;;;;5014444;28;20033;-39
2022/05/30 09:39:00;;;;;;;1.58;1.48;;;14.40;73.70;;;;;;5014347;28;20026;-40
2022/05/30 09:41:43;;;;;;;1.48;1.38;;;14.60;93.40;;;;;;5019329;28;20021;-40
2022/05/30 09:44:18;;;;;;;1.48;1.38;;;15.30;82.30;;;;;;5016838;28;20031;-36
2022/05/30 09:47:13;;;;;;;1.60;1.50;;;15.60;72.90;;;;;;5014555;28;20041;-39
2022/05/30 09:49:48;;;;;;;1.52;1.38;;;14.80;66.50;;;;;;5014764;28;20053;-36
2022/05/30 09:52:35;;;;;;;1.70;1.60;;;14.60;78.80;;;;;;5019719;28;20496;-37
2022/05/30 09:55:20;;;;;;;3.47;1.80;;;14.40;75.00;;;;;;5016799;28;20041;-36
2022/05/30 09:57:46;;;;;;;1.83;1.73;;;14.90;83.90;;;;;;5018475;28;20323;-38
2022/05/30 10:00:39;;;;;;;2.30;1.42;;;15.00;72.70;;;;;;5018736;28;20045;-36
2022/05/30 10:03:11;;;;;;;1.58;1.45;;;15.40;63.40;;;;;;5013108;28;20037;-37
2022/05/30 10:05:39;;;;;;;1.58;1.27;;;16.10;62.70;;;;;;5024204;28;20474;-38
2022/05/30 10:08:19;;;;;;;2.75;1.58;;;16.00;64.40;;;;;;5014493;28;20018;-36
2022/05/30 10:10:50;;;;;;;1.50;1.40;;;15.80;57.30;;;;;;5024406;28;20037;-37
2022/05/30 10:13:39;;;;;;;5.20;1.88;;;15.30;71.30;;;;;;5022340;28;20029;-36
2022/05/30 10:16:08;;;;;;;1.73;1.63;;;15.30;68.10;;;;;;5022127;28;20359;-38
2022/05/30 10:18:48;;;;;;;2.17;1.80;;;15.80;65.90;;;;;;5026067;28;20982;-36
2022/05/30 10:21:35;;;;;;;4.25;1.52;;;16.10;67.10;;;;;;5024298;28;20041;-38
2022/05/30 10:30:16;;;;;;;1.67;1.58;;;15.20;62.10;;;;;;5017661;28;20047;-39
2022/05/30 10:32:57;;;;;;;2.33;1.75;;;14.50;66.20;;;;;;5022298;28;20457;-38
2022/05/30 10:35:28;;;;;;;1.70;1.60;;;14.30;67.50;;;;;;5022810;28;20022;-37
2022/05/30 10:38:20;;;;;;;1.80;1.70;;;14.20;66.60;;;;;;5021007;28;20025;-39
2022/05/30 10:41:03;;;;;;;1.88;1.40;;;14.40;64.90;;;;;;5015761;28;20022;-39
2022/05/30 10:43:59;;;;;;;2.20;1.88;;;14.80;63.80;;;;;;5021542;28;20557;-38
2022/05/30 10:46:28;;;;;;;1.85;1.75;;;15.00;60.80;;;;;;5013695;28;20033;-37
2022/05/30 10:49:01;;;;;;;2.33;1.80;;;14.90;67.00;;;;;;5023407;28;20111;-39
2022/05/30 10:51:31;;;;;;;1.48;1.38;;;14.70;62.60;;;;;;5016235;28;20075;-39
2022/05/30 10:54:06;;;;;;;3.58;1.70;;;14.80;60.80;;;;;;5025728;28;20021;-39
2022/05/30 10:56:35;;;;;;;3.00;1.80;;;14.70;59.50;;;;;;5024618;28;20406;-39
2022/05/30 10:59:03;;;;;;;2.45;1.80;;;14.40;61.40;;;;;;5018956;28;20032;-37
2022/05/30 11:01:44;;;;;;;2.50;2.20;;;14.30;60.50;;;;;;5015336;28;20061;-39
2022/05/30 11:04:35;;;;;;;1.98;1.88;;;14.30;61.80;;;;;;5022823;28;20034;-39
2022/05/30 11:07:10;;;;;;;2.60;2.00;;;14.20;63.90;;;;;;5026580;28;20087;-39
2022/05/30 11:09:56;;;;;;;2.92;2.10;;;14.30;76.70;;;;;;5027779;28;20048;-37
2022/05/30 11:12:30;;;;;;;1.95;1.85;;;14.80;71.00;;;;;;5024787;28;20440;-37
2022/05/30 11:15:38;;;;;;;4.10;1.77;;;14.90;62.10;;;;;;5029801;28;20036;-36
2022/05/30 11:18:43;;;;;;;2.28;2.08;;;14.90;64.50;;;;;;5024374;28;20091;-38
2022/05/30 11:21:22;;;;;;;5.40;4.55;;;15.20;58.50;;;;;;5009722;28;20038;-37
2022/05/30 11:23:55;;;;;;;1.80;1.70;;;15.40;62.00;;;;;;5025053;28;20411;-38
2022/05/30 11:26:30;;;;;;;2.30;2.10;;;15.40;67.10;;;;;;5026641;28;20033;-38
2022/05/30 11:29:15;;;;;;;2.35;2.15;;;15.50;57.00;;;;;;5023239;28;20397;-38
2022/05/30 11:31:44;;;;;;;3.50;2.00;;;15.50;56.80;;;;;;5026504;28;20125;-37
2022/05/30 11:34:27;;;;;;;2.47;2.10;;;15.70;57.90;;;;;;5032101;28;20038;-38
2022/05/30 11:37:03;;;;;;;2.15;1.95;;;15.80;67.50;;;;;;5023611;28;20063;-38
2022/05/30 11:39:42;;;;;;;2.80;1.90;;;15.60;59.40;;;;;;5028007;28;20044;-35
2022/05/30 11:42:35;;;;;;;1.88;1.77;;;15.70;63.40;;;;;;5019947;28;20029;-36
2022/05/30 11:45:40;;;;;;;2.10;2.00;;;15.50;59.20;;;;;;5026915;28;20060;-39
2022/05/30 11:48:27;;;;;;;1.20;1.20;;;15.40;60.10;;;;;;5024283;28;20064;-37
2022/05/30 11:51:04;;;;;;;1.50;1.40;;;15.50;61.70;;;;;;5024527;28;20386;-35
2022/05/30 11:53:47;;;;;;;1.55;1.45;;;15.50;58.50;;;;;;5032024;28;20036;-38
2022/05/30 11:56:33;;;;;;;4.32;1.98;;;15.60;57.60;;;;;;5021629;28;20369;-39
2022/05/30 11:59:23;;;;;;;2.22;1.52;;;15.60;57.90;;;;;;5025208;28;20045;-39
2022/05/30 12:01:53;;;;;;;2.70;2.15;;;15.60;66.30;;;;;;5022204;28;20038;-38
2022/05/30 12:04:31;;;;;;;3.60;1.85;;;15.70;62.70;;;;;;5022128;28;20044;-38
2022/05/30 12:07:14;;;;;;;3.05;1.90;;;15.60;60.60;;;;;;5015366;28;20063;-39
2022/05/30 12:09:55;;;;;;;1.65;1.55;;;15.70;59.00;;;;;;5027955;28;20548;-37
2022/05/30 12:12:27;;;;;;;2.60;1.92;;;15.70;55.70;;;;;;5023941;28;20467;-37
2022/05/30 12:14:56;;;;;;;1.73;1.58;;;15.80;55.70;;;;;;5032270;28;20028;-39
2022/05/30 12:17:30;;;;;;;2.15;1.50;;;15.80;55.70;;;;;;5021379;28;20039;-38
2022/05/30 12:25:53;;;;;;;1.55;1.45;;;16.20;55.40;;;;;;5026909;28;20524;-39
2022/05/30 12:28:28;;;;;;;2.33;1.30;;;16.50;54.70;;;;;;5021405;28;20144;-36
2022/05/30 12:30:57;;;;;;;1.63;1.30;;;16.60;50.90;;;;;;5026411;28;20060;-38
2022/05/30 12:33:28;;;;;;;2.95;1.50;;;16.30;51.30;;;;;;5025671;28;20076;-37
2022/05/30 12:36:09;;;;;;;1.30;1.20;;;16.30;52.00;;;;;;5020899;28;20518;-36
2022/05/30 12:39:01;;;;;;;1.20;1.20;;;16.40;52.30;;;;;;5023131;28;20097;-39
2022/05/30 12:41:54;;;;;;;1.35;1.25;;;16.40;52.10;;;;;;5019034;28;20121;-39
2022/05/30 12:44:44;;;;;;;1.25;1.15;;;16.60;52.70;;;;;;5022545;28;20033;-38
2022/05/30 12:47:26;;;;;;;1.58;1.30;;;16.70;50.40;;;;;;5022555;28;20441;-37
2022/05/30 12:49:51;;;;;;;2.47;1.30;;;17.00;51.10;;;;;;5023695;28;20076;-37
2022/05/30 12:52:20;;;;;;;1.20;1.10;;;17.30;53.80;;;;;;5019939;28;20426;-37
2022/05/30 12:54:58;;;;;;;1.27;1.27;;;17.40;51.50;;;;;;5023522;28;20035;-38
2022/05/30 12:57:44;;;;;;;2.22;1.23;;;17.60;54.10;;;;;;5024686;28;20033;-36
2022/05/30 13:00:14;;;;;;;2.22;1.40;;;17.40;51.40;;;;;;5026575;28;20097;-39
2022/05/30 13:02:57;;;;;;;1.70;1.10;;;17.40;47.90;;;;;;5017643;28;20515;-36
2022/05/30 13:05:46;;;;;;;1.77;1.65;;;17.40;49.70;;;;;;5021188;28;20040;-36
2022/05/30 13:08:49;;;;;;;2.38;1.50;;;17.60;51.10;;;;;;5025612;28;20123;-39
2022/05/30 13:11:33;;;;;;;3.38;1.15;;;17.40;47.70;;;;;;5025905;28;20043;-39
2022/05/30 13:14:36;;;;;;;2.45;1.00;;;17.30;47.20;;;;;;5022144;28;20037;-37
2022/05/30 13:17:37;;;;;;;1.08;1.08;;;17.20;50.70;;;;;;5024622;28;20046;-36
2022/05/30 13:20:10;;;;;;;2.47;1.23;;;17.40;52.30;;;;;;5023789;28;20064;-37
2022/05/30 13:22:39;;;;;;;1.38;1.27;;;17.40;48.90;;;;;;5022602;28;20059;-38
2022/05/30 13:25:08;;;;;;;2.33;1.30;;;17.40;49.30;;;;;;5024039;28;20044;-39
2022/05/30 13:27:33;;;;;;;1.20;1.10;;;17.20;46.10;;;;;;5017439;28;20038;-36
2022/05/30 13:30:13;;;;;;;1.55;1.25;;;17.10;49.70;;;;;;5020927;28;20535;-37
2022/05/30 13:32:39;;;;;;;2.15;1.13;;;16.80;49.10;;;;;;5022762;28;20124;-38
2022/05/30 13:35:10;;;;;;;0.77;0.77;;;16.80;48.40;;;;;;5026580;28;20079;-39